sensor_id;sensor_type;location;lat;lon;timestamp;pressure;altitude;pressure_sealevel;temperature;humidity
66385;BME280;53426;55.872;37.462;2024-01-27T00:00:46;99045.13;;;-2.41;74.02
66385;BME280;53426;55.872;37.462;2024-01-27T00:03:13;98994.66;;;-2.55;73.63
66385;BME280;53426;55.872;37.462;2024-01-27T00:05:39;98965.97;;;-2.72;73.10
66385;BME280;53426;55.872;37.462;2024-01-27T00:08:05;98980.84;;;-2.55;72.95
66385;BME280;53426;55.872;37.462;2024-01-27T00:10:31;99032.69;;;-2.33;72.99
66385;BME280;53426;55.872;37.462;2024-01-27T00:12:57;98984.72;;;-2.65;72.66
66385;BME280;53426;55.872;37.462;2024-01-27T00:15:23;99021.97;;;-2.46;72.96
66385;BME280;53426;55.872;37.462;2024-01-27T00:17:49;99033.78;;;-2.39;72.67
66385;BME280;53426;55.872;37.462;2024-01-27T00:20:16;98860.63;;;-3.58;72.69
66385;BME280;53426;55.872;37.462;2024-01-27T00:22:41;99022.22;;;-2.52;72.86
66385;BME280;53426;55.872;37.462;2024-01-27T00:25:08;99013.88;;;-2.60;72.62
66385;BME280;53426;55.872;37.462;2024-01-27T00:27:34;99042.16;;;-2.54;73.09
66385;BME280;53426;55.872;37.462;2024-01-27T00:30:00;98922.66;;;-3.33;72.44
66385;BME280;53426;55.872;37.462;2024-01-27T00:32:26;99043.28;;;-2.61;72.80
66385;BME280;53426;55.872;37.462;2024-01-27T00:34:52;99031.84;;;-2.56;73.27
66385;BME280;53426;55.872;37.462;2024-01-27T00:37:42;99039.47;;;-2.51;73.03
66385;BME280;53426;55.872;37.462;2024-01-27T00:40:11;99033.94;;;-2.65;73.22
66385;BME280;53426;55.872;37.462;2024-01-27T00:42:38;99052.81;;;-2.62;73.05
66385;BME280;53426;55.872;37.462;2024-01-27T00:45:05;99040.34;;;-2.52;73.50
66385;BME280;53426;55.872;37.462;2024-01-27T00:47:31;99044.22;;;-2.40;73.32
66385;BME280;53426;55.872;37.462;2024-01-27T00:50:00;99053.41;;;-2.33;73.24
66385;BME280;53426;55.872;37.462;2024-01-27T00:52:26;99043.66;;;-2.27;72.91
66385;BME280;53426;55.872;37.462;2024-01-27T00:54:52;99028.09;;;-2.27;72.52
66385;BME280;53426;55.872;37.462;2024-01-27T00:57:18;99011.09;;;-2.34;72.43
66385;BME280;53426;55.872;37.462;2024-01-27T00:59:44;99031.50;;;-2.25;72.09
66385;BME280;53426;55.872;37.462;2024-01-27T01:02:11;98938.31;;;-2.71;71.79
66385;BME280;53426;55.872;37.462;2024-01-27T01:04:37;99024.97;;;-2.13;71.45
66385;BME280;53426;55.872;37.462;2024-01-27T01:07:03;99052.13;;;-2.01;71.03
66385;BME280;53426;55.872;37.462;2024-01-27T01:09:30;99040.53;;;-2.13;71.28
66385;BME280;53426;55.872;37.462;2024-01-27T01:11:56;99014.25;;;-2.26;71.48
66385;BME280;53426;55.872;37.462;2024-01-27T01:14:23;99014.94;;;-2.22;71.06
66385;BME280;53426;55.872;37.462;2024-01-27T01:16:50;99005.91;;;-2.34;70.75
66385;BME280;53426;55.872;37.462;2024-01-27T01:19:16;99055.34;;;-2.17;70.51
66385;BME280;53426;55.872;37.462;2024-01-27T01:21:42;99049.50;;;-2.22;70.65
66385;BME280;53426;55.872;37.462;2024-01-27T01:24:09;98991.78;;;-2.69;71.00
66385;BME280;53426;55.872;37.462;2024-01-27T01:26:35;99051.56;;;-2.30;71.62
66385;BME280;53426;55.872;37.462;2024-01-27T01:29:02;99047.34;;;-2.32;71.92
66385;BME280;53426;55.872;37.462;2024-01-27T01:31:31;99050.22;;;-2.40;71.48
66385;BME280;53426;55.872;37.462;2024-01-27T01:34:00;99019.06;;;-2.60;71.80
66385;BME280;53426;55.872;37.462;2024-01-27T01:36:27;99048.44;;;-2.38;72.15
66385;BME280;53426;55.872;37.462;2024-01-27T01:38:55;99045.41;;;-2.49;71.71
66385;BME280;53426;55.872;37.462;2024-01-27T01:41:21;99021.59;;;-2.80;71.74
66385;BME280;53426;55.872;37.462;2024-01-27T01:43:47;99049.81;;;-2.73;71.82
66385;BME280;53426;55.872;37.462;2024-01-27T01:46:13;99054.47;;;-2.82;72.20
66385;BME280;53426;55.872;37.462;2024-01-27T01:48:39;99047.78;;;-2.88;72.71
66385;BME280;53426;55.872;37.462;2024-01-27T01:51:05;99014.28;;;-3.16;72.47
66385;BME280;53426;55.872;37.462;2024-01-27T01:53:31;99044.81;;;-3.01;72.47
66385;BME280;53426;55.872;37.462;2024-01-27T01:55:57;99037.31;;;-3.08;72.89
66385;BME280;53426;55.872;37.462;2024-01-27T01:58:24;99052.41;;;-2.96;72.51
66385;BME280;53426;55.872;37.462;2024-01-27T02:00:50;99054.50;;;-3.06;72.80
66385;BME280;53426;55.872;37.462;2024-01-27T02:03:16;99001.16;;;-3.33;72.95
66385;BME280;53426;55.872;37.462;2024-01-27T02:05:41;99042.31;;;-3.04;73.10
66385;BME280;53426;55.872;37.462;2024-01-27T02:08:07;99023.44;;;-3.29;72.57
66385;BME280;53426;55.872;37.462;2024-01-27T02:10:34;98941.56;;;-3.78;73.42
66385;BME280;53426;55.872;37.462;2024-01-27T02:13:22;99059.88;;;-2.88;73.20
66385;BME280;53426;55.872;37.462;2024-01-27T02:15:51;99048.03;;;-3.17;73.05
66385;BME280;53426;55.872;37.462;2024-01-27T02:18:36;99081.09;;;-3.01;73.24
66385;BME280;53426;55.872;37.462;2024-01-27T02:21:02;99042.91;;;-3.19;73.17
66385;BME280;53426;55.872;37.462;2024-01-27T02:23:28;99087.81;;;-2.97;73.18
66385;BME280;53426;55.872;37.462;2024-01-27T02:25:54;99076.22;;;-3.10;72.70
66385;BME280;53426;55.872;37.462;2024-01-27T02:28:23;99070.56;;;-3.21;72.56
66385;BME280;53426;55.872;37.462;2024-01-27T02:30:49;99034.34;;;-3.44;72.54
66385;BME280;53426;55.872;37.462;2024-01-27T02:33:15;99086.41;;;-3.28;72.93
66385;BME280;53426;55.872;37.462;2024-01-27T02:35:41;99074.72;;;-3.40;73.42
66385;BME280;53426;55.872;37.462;2024-01-27T02:38:09;99097.59;;;-3.28;73.44
66385;BME280;53426;55.872;37.462;2024-01-27T02:40:35;99067.13;;;-3.45;73.52
66385;BME280;53426;55.872;37.462;2024-01-27T02:43:01;99079.22;;;-3.45;73.72
66385;BME280;53426;55.872;37.462;2024-01-27T02:45:29;99045.22;;;-3.59;73.57
66385;BME280;53426;55.872;37.462;2024-01-27T02:47:55;99082.50;;;-3.40;73.39
66385;BME280;53426;55.872;37.462;2024-01-27T02:50:21;99058.41;;;-3.42;73.36
66385;BME280;53426;55.872;37.462;2024-01-27T02:52:47;99039.06;;;-3.55;73.56
66385;BME280;53426;55.872;37.462;2024-01-27T02:55:15;99086.63;;;-3.34;73.58
66385;BME280;53426;55.872;37.462;2024-01-27T02:57:43;99084.06;;;-3.36;73.36
66385;BME280;53426;55.872;37.462;2024-01-27T03:00:10;99100.34;;;-3.32;73.74
66385;BME280;53426;55.872;37.462;2024-01-27T03:02:36;99064.00;;;-3.54;73.41
66385;BME280;53426;55.872;37.462;2024-01-27T03:05:03;99081.13;;;-3.50;73.07
66385;BME280;53426;55.872;37.462;2024-01-27T03:07:34;99040.91;;;-3.84;73.59
66385;BME280;53426;55.872;37.462;2024-01-27T03:10:00;99079.91;;;-3.65;73.93
66385;BME280;53426;55.872;37.462;2024-01-27T03:12:26;99106.16;;;-3.51;74.16
66385;BME280;53426;55.872;37.462;2024-01-27T03:14:52;99104.09;;;-3.41;74.16
66385;BME280;53426;55.872;37.462;2024-01-27T03:17:19;99081.44;;;-3.59;73.43
66385;BME280;53426;55.872;37.462;2024-01-27T03:19:45;99106.81;;;-3.44;73.59
66385;BME280;53426;55.872;37.462;2024-01-27T03:22:11;99078.22;;;-3.66;73.71
66385;BME280;53426;55.872;37.462;2024-01-27T03:24:37;99091.00;;;-3.61;73.82
66385;BME280;53426;55.872;37.462;2024-01-27T03:27:03;99112.97;;;-3.48;73.74
66385;BME280;53426;55.872;37.462;2024-01-27T03:29:29;99093.47;;;-3.58;73.87
66385;BME280;53426;55.872;37.462;2024-01-27T03:31:55;99063.38;;;-3.86;73.58
66385;BME280;53426;55.872;37.462;2024-01-27T03:34:23;99119.56;;;-3.64;73.53
66385;BME280;53426;55.872;37.462;2024-01-27T03:36:51;99095.03;;;-3.79;73.71
66385;BME280;53426;55.872;37.462;2024-01-27T03:39:16;99116.47;;;-3.75;74.27
66385;BME280;53426;55.872;37.462;2024-01-27T03:41:42;99113.00;;;-3.74;74.16
66385;BME280;53426;55.872;37.462;2024-01-27T03:44:08;99073.22;;;-3.97;74.28
66385;BME280;53426;55.872;37.462;2024-01-27T03:46:34;99079.19;;;-3.95;74.33
66385;BME280;53426;55.872;37.462;2024-01-27T03:49:03;99086.25;;;-4.00;73.55
66385;BME280;53426;55.872;37.462;2024-01-27T03:51:32;99121.16;;;-3.87;73.93
66385;BME280;53426;55.872;37.462;2024-01-27T03:53:59;99071.34;;;-4.18;74.28
66385;BME280;53426;55.872;37.462;2024-01-27T03:56:25;99097.81;;;-4.10;74.33
66385;BME280;53426;55.872;37.462;2024-01-27T03:58:51;99117.69;;;-3.86;75.12
66385;BME280;53426;55.872;37.462;2024-01-27T04:01:17;99123.84;;;-3.63;75.15
66385;BME280;53426;55.872;37.462;2024-01-27T04:03:43;99128.34;;;-3.70;74.09
66385;BME280;53426;55.872;37.462;2024-01-27T04:06:09;99144.94;;;-3.49;73.80
66385;BME280;53426;55.872;37.462;2024-01-27T04:11:51;99148.50;;;-3.53;73.68
66385;BME280;53426;55.872;37.462;2024-01-27T04:14:16;99154.72;;;-3.59;73.57
66385;BME280;53426;55.872;37.462;2024-01-27T04:16:42;99159.81;;;-3.56;73.76
66385;BME280;53426;55.872;37.462;2024-01-27T04:19:08;99008.47;;;-4.45;73.62
66385;BME280;53426;55.872;37.462;2024-01-27T04:21:34;99054.13;;;-4.19;73.41
66385;BME280;53426;55.872;37.462;2024-01-27T04:24:00;99169.47;;;-3.61;73.98
66385;BME280;53426;55.872;37.462;2024-01-27T04:26:26;98985.66;;;-4.58;73.12
66385;BME280;53426;55.872;37.462;2024-01-27T04:28:55;99199.38;;;-3.52;73.55
66385;BME280;53426;55.872;37.462;2024-01-27T04:31:21;98905.69;;;-5.16;73.52
66385;BME280;53426;55.872;37.462;2024-01-27T04:33:47;99097.00;;;-4.12;73.45
66385;BME280;53426;55.872;37.462;2024-01-27T04:36:13;99130.53;;;-3.83;73.51
66385;BME280;53426;55.872;37.462;2024-01-27T04:38:39;99207.25;;;-3.55;73.13
66385;BME280;53426;55.872;37.462;2024-01-27T04:41:11;98970.13;;;-4.85;73.60
66385;BME280;53426;55.872;37.462;2024-01-27T04:43:37;98914.28;;;-5.15;73.89
66385;BME280;53426;55.872;37.462;2024-01-27T04:46:28;98987.63;;;-4.67;73.59
66385;BME280;53426;55.872;37.462;2024-01-27T04:48:55;99040.16;;;-4.40;73.60
66385;BME280;53426;55.872;37.462;2024-01-27T04:51:21;99030.66;;;-4.39;73.62
66385;BME280;53426;55.872;37.462;2024-01-27T04:53:50;99065.94;;;-4.10;73.27
66385;BME280;53426;55.872;37.462;2024-01-27T04:56:18;99123.53;;;-3.81;73.21
66385;BME280;53426;55.872;37.462;2024-01-27T04:58:44;99181.91;;;-3.46;73.30
66385;BME280;53426;55.872;37.462;2024-01-27T05:01:11;99127.66;;;-3.75;73.39
66385;BME280;53426;55.872;37.462;2024-01-27T05:03:37;99169.00;;;-3.47;73.30
66385;BME280;53426;55.872;37.462;2024-01-27T05:06:07;99199.25;;;-3.23;72.90
66385;BME280;53426;55.872;37.462;2024-01-27T05:08:34;99187.94;;;-3.20;72.79
66385;BME280;53426;55.872;37.462;2024-01-27T05:11:00;99189.44;;;-3.13;72.61
66385;BME280;53426;55.872;37.462;2024-01-27T05:13:27;99170.13;;;-3.29;72.06
66385;BME280;53426;55.872;37.462;2024-01-27T05:16:02;99175.25;;;-3.28;72.46
66385;BME280;53426;55.872;37.462;2024-01-27T05:18:31;99196.38;;;-3.15;72.30
66385;BME280;53426;55.872;37.462;2024-01-27T05:20:57;99143.03;;;-3.70;71.85
66385;BME280;53426;55.872;37.462;2024-01-27T05:23:25;99168.56;;;-3.86;72.19
66385;BME280;53426;55.872;37.462;2024-01-27T05:25:53;99151.41;;;-3.89;73.12
66385;BME280;53426;55.872;37.462;2024-01-27T05:28:20;99190.72;;;-3.51;73.42
66385;BME280;53426;55.872;37.462;2024-01-27T05:30:49;99185.22;;;-3.42;73.42
66385;BME280;53426;55.872;37.462;2024-01-27T05:33:17;99173.13;;;-3.42;72.96
66385;BME280;53426;55.872;37.462;2024-01-27T05:49:57;99258.47;;;-3.39;71.95
66385;BME280;53426;55.872;37.462;2024-01-27T05:52:48;99147.28;;;-3.94;72.39
66385;BME280;53426;55.872;37.462;2024-01-27T05:55:14;99171.47;;;-3.97;72.17
66385;BME280;53426;55.872;37.462;2024-01-27T06:00:37;99122.13;;;-4.45;72.49
66385;BME280;53426;55.872;37.462;2024-01-27T06:03:03;99203.88;;;-3.85;72.98
66385;BME280;53426;55.872;37.462;2024-01-27T06:05:29;99107.50;;;-4.44;72.84
66385;BME280;53426;55.872;37.462;2024-01-27T06:08:14;99255.91;;;-3.40;72.67
66385;BME280;53426;55.872;37.462;2024-01-27T06:10:44;99264.06;;;-3.52;72.42
66385;BME280;53426;55.872;37.462;2024-01-27T06:13:13;99034.56;;;-4.80;72.15
66385;BME280;53426;55.872;37.462;2024-01-27T06:15:40;99233.38;;;-3.64;72.31
66385;BME280;53426;55.872;37.462;2024-01-27T06:18:08;99221.03;;;-3.83;72.39
66385;BME280;53426;55.872;37.462;2024-01-27T06:20:52;99149.06;;;-4.24;72.29
66385;BME280;53426;55.872;37.462;2024-01-27T06:23:22;99271.22;;;-3.60;72.22
66385;BME280;53426;55.872;37.462;2024-01-27T06:25:51;99242.50;;;-3.53;72.42
66385;BME280;53426;55.872;37.462;2024-01-27T06:28:24;99226.63;;;-3.68;72.56
66385;BME280;53426;55.872;37.462;2024-01-27T06:30:53;99148.34;;;-4.29;72.11
66385;BME280;53426;55.872;37.462;2024-01-27T06:33:45;99193.53;;;-3.85;72.41
66385;BME280;53426;55.872;37.462;2024-01-27T06:36:11;99222.97;;;-3.61;72.43
66385;BME280;53426;55.872;37.462;2024-01-27T06:41:44;99273.91;;;-3.11;72.46
66385;BME280;53426;55.872;37.462;2024-01-27T06:44:12;99232.16;;;-3.53;72.09
66385;BME280;53426;55.872;37.462;2024-01-27T06:46:41;99256.59;;;-3.35;71.85
66385;BME280;53426;55.872;37.462;2024-01-27T06:49:07;99281.44;;;-3.29;71.78
66385;BME280;53426;55.872;37.462;2024-01-27T06:51:33;99273.34;;;-3.45;71.68
66385;BME280;53426;55.872;37.462;2024-01-27T06:53:59;99285.41;;;-3.46;71.79
66385;BME280;53426;55.872;37.462;2024-01-27T06:56:25;99281.84;;;-3.42;72.28
66385;BME280;53426;55.872;37.462;2024-01-27T06:58:51;99286.78;;;-3.34;71.87
66385;BME280;53426;55.872;37.462;2024-01-27T07:01:17;99281.53;;;-3.32;72.16
66385;BME280;53426;55.872;37.462;2024-01-27T07:03:43;99272.31;;;-3.41;72.20
66385;BME280;53426;55.872;37.462;2024-01-27T07:06:10;99296.41;;;-3.11;72.34
66385;BME280;53426;55.872;37.462;2024-01-27T07:08:36;99297.50;;;-2.93;72.12
66385;BME280;53426;55.872;37.462;2024-01-27T07:11:01;99292.44;;;-2.97;71.80
66385;BME280;53426;55.872;37.462;2024-01-27T07:16:28;99330.06;;;-2.85;71.23
66385;BME280;53426;55.872;37.462;2024-01-27T07:19:37;99316.06;;;-3.06;71.23
66385;BME280;53426;55.872;37.462;2024-01-27T07:24:53;99158.13;;;-3.83;71.15
66385;BME280;53426;55.872;37.462;2024-01-27T07:27:19;99172.94;;;-3.62;70.79
66385;BME280;53426;55.872;37.462;2024-01-27T07:29:48;99154.91;;;-3.91;70.63
66385;BME280;53426;55.872;37.462;2024-01-27T07:32:15;99326.81;;;-2.67;70.62
66385;BME280;53426;55.872;37.462;2024-01-27T07:34:44;99336.63;;;-2.50;71.02
66385;BME280;53426;55.872;37.462;2024-01-27T07:37:16;99257.69;;;-2.89;70.37
66385;BME280;53426;55.872;37.462;2024-01-27T07:39:42;99170.94;;;-3.54;69.62
66385;BME280;53426;55.872;37.462;2024-01-27T07:42:12;99204.63;;;-3.29;69.91
66385;BME280;53426;55.872;37.462;2024-01-27T07:44:47;99137.56;;;-3.61;69.92
66385;BME280;53426;55.872;37.462;2024-01-27T07:47:20;99324.09;;;-2.62;69.81
66385;BME280;53426;55.872;37.462;2024-01-27T07:49:46;99352.59;;;-2.37;69.45
66385;BME280;53426;55.872;37.462;2024-01-27T07:52:14;99289.94;;;-2.73;69.17
66385;BME280;53426;55.872;37.462;2024-01-27T07:54:41;99298.47;;;-2.71;69.41
66385;BME280;53426;55.872;37.462;2024-01-27T07:57:07;99243.44;;;-3.03;69.43
66385;BME280;53426;55.872;37.462;2024-01-27T07:59:33;99280.03;;;-2.87;68.64
66385;BME280;53426;55.872;37.462;2024-01-27T08:02:00;99369.00;;;-2.37;69.53
66385;BME280;53426;55.872;37.462;2024-01-27T08:04:29;99223.81;;;-3.10;69.22
66385;BME280;53426;55.872;37.462;2024-01-27T08:07:23;99359.75;;;-2.44;68.56
66385;BME280;53426;55.872;37.462;2024-01-27T08:09:58;99399.66;;;-2.74;69.08
66385;BME280;53426;55.872;37.462;2024-01-27T08:12:56;99253.16;;;-3.62;69.81
66385;BME280;53426;55.872;37.462;2024-01-27T08:19:21;99208.22;;;-3.59;69.55
66385;BME280;53426;55.872;37.462;2024-01-27T08:21:47;99319.03;;;-2.91;69.58
66385;BME280;53426;55.872;37.462;2024-01-27T08:24:14;99320.41;;;-2.81;69.66
66385;BME280;53426;55.872;37.462;2024-01-27T08:26:40;99295.81;;;-2.95;69.62
66385;BME280;53426;55.872;37.462;2024-01-27T08:29:08;99206.94;;;-3.46;69.23
66385;BME280;53426;55.872;37.462;2024-01-27T08:31:35;99245.34;;;-3.34;69.07
66385;BME280;53426;55.872;37.462;2024-01-27T08:34:01;99293.38;;;-2.99;68.73
66385;BME280;53426;55.872;37.462;2024-01-27T08:36:27;99399.53;;;-2.20;68.50
66385;BME280;53426;55.872;37.462;2024-01-27T08:38:53;99400.47;;;-2.23;68.30
66385;BME280;53426;55.872;37.462;2024-01-27T08:41:19;99323.34;;;-2.66;68.53
66385;BME280;53426;55.872;37.462;2024-01-27T08:43:45;99312.69;;;-2.57;68.66
66385;BME280;53426;55.872;37.462;2024-01-27T08:46:11;99404.03;;;-2.00;68.36
66385;BME280;53426;55.872;37.462;2024-01-27T08:48:42;99398.25;;;-1.84;68.02
66385;BME280;53426;55.872;37.462;2024-01-27T08:51:09;99296.88;;;-2.26;67.92
66385;BME280;53426;55.872;37.462;2024-01-27T08:53:38;99280.00;;;-2.37;67.58
66385;BME280;53426;55.872;37.462;2024-01-27T08:56:04;99336.50;;;-2.22;66.68
66385;BME280;53426;55.872;37.462;2024-01-27T08:58:31;99283.63;;;-2.66;67.06
66385;BME280;53426;55.872;37.462;2024-01-27T09:00:58;99266.34;;;-2.90;66.99
66385;BME280;53426;55.872;37.462;2024-01-27T09:03:25;99317.41;;;-2.69;67.01
66385;BME280;53426;55.872;37.462;2024-01-27T09:05:53;99177.31;;;-3.64;67.40
66385;BME280;53426;55.872;37.462;2024-01-27T09:08:19;99190.44;;;-3.70;67.91
66385;BME280;53426;55.872;37.462;2024-01-27T09:10:45;99292.03;;;-3.11;67.85
66385;BME280;53426;55.872;37.462;2024-01-27T09:13:11;99312.50;;;-3.03;68.59
66385;BME280;53426;55.872;37.462;2024-01-27T09:15:40;99150.88;;;-3.98;68.61
66385;BME280;53426;55.872;37.462;2024-01-27T09:18:06;99328.94;;;-3.04;69.18
66385;BME280;53426;55.872;37.462;2024-01-27T09:20:32;99395.19;;;-2.44;68.66
66385;BME280;53426;55.872;37.462;2024-01-27T09:22:58;99399.91;;;-2.31;68.56
66385;BME280;53426;55.872;37.462;2024-01-27T09:25:27;99311.13;;;-2.62;68.10
66385;BME280;53426;55.872;37.462;2024-01-27T09:27:53;99336.31;;;-2.41;68.06
66385;BME280;53426;55.872;37.462;2024-01-27T09:30:20;99397.34;;;-1.83;67.40
66385;BME280;53426;55.872;37.462;2024-01-27T09:32:46;99333.84;;;-2.21;67.10
66385;BME280;53426;55.872;37.462;2024-01-27T09:35:12;99388.75;;;-1.85;66.96
66385;BME280;53426;55.872;37.462;2024-01-27T09:37:38;99415.91;;;-1.70;66.47
66385;BME280;53426;55.872;37.462;2024-01-27T09:40:05;99309.03;;;-2.51;66.91
66385;BME280;53426;55.872;37.462;2024-01-27T09:42:33;99429.00;;;-1.73;66.94
66385;BME280;53426;55.872;37.462;2024-01-27T09:45:35;99413.66;;;-1.56;66.52
66385;BME280;53426;55.872;37.462;2024-01-27T09:48:26;99417.31;;;-1.61;66.09
66385;BME280;53426;55.872;37.462;2024-01-27T09:50:53;99426.09;;;-1.64;66.69
66385;BME280;53426;55.872;37.462;2024-01-27T09:53:20;99390.91;;;-1.73;67.29
66385;BME280;53426;55.872;37.462;2024-01-27T09:55:47;99348.09;;;-1.84;66.25
66385;BME280;53426;55.872;37.462;2024-01-27T09:58:15;99331.50;;;-2.03;66.02
66385;BME280;53426;55.872;37.462;2024-01-27T10:00:43;99420.53;;;-1.32;66.11
66385;BME280;53426;55.872;37.462;2024-01-27T10:03:34;99429.53;;;-1.18;66.09
66385;BME280;53426;55.872;37.462;2024-01-27T10:06:00;99452.81;;;-1.15;65.54
66385;BME280;53426;55.872;37.462;2024-01-27T10:08:29;99379.91;;;-1.56;64.85
66385;BME280;53426;55.872;37.462;2024-01-27T10:10:56;99446.59;;;-1.35;65.38
66385;BME280;53426;55.872;37.462;2024-01-27T10:13:22;99404.06;;;-1.54;65.66
66385;BME280;53426;55.872;37.462;2024-01-27T10:16:07;99429.72;;;-1.23;65.47
66385;BME280;53426;55.872;37.462;2024-01-27T10:18:37;99407.84;;;-1.62;65.57
66385;BME280;53426;55.872;37.462;2024-01-27T10:21:16;99348.31;;;-1.90;66.11
66385;BME280;53426;55.872;37.462;2024-01-27T10:23:42;99454.81;;;-1.22;65.62
66385;BME280;53426;55.872;37.462;2024-01-27T10:26:11;99443.16;;;-1.12;65.58
66385;BME280;53426;55.872;37.462;2024-01-27T10:28:37;99405.22;;;-1.39;64.87
66385;BME280;53426;55.872;37.462;2024-01-27T10:31:10;99274.34;;;-2.24;65.16
66385;BME280;53426;55.872;37.462;2024-01-27T10:33:36;99383.97;;;-1.72;65.33
66385;BME280;53426;55.872;37.462;2024-01-27T10:36:02;99462.81;;;-1.28;65.91
66385;BME280;53426;55.872;37.462;2024-01-27T10:38:39;99465.81;;;-1.15;65.78
66385;BME280;53426;55.872;37.462;2024-01-27T10:41:09;99374.66;;;-1.78;65.13
66385;BME280;53426;55.872;37.462;2024-01-27T10:43:38;99391.84;;;-1.52;65.04
66385;BME280;53426;55.872;37.462;2024-01-27T10:46:06;99414.59;;;-1.35;64.78
66385;BME280;53426;55.872;37.462;2024-01-27T10:48:35;99476.97;;;-1.13;64.86
66385;BME280;53426;55.872;37.462;2024-01-27T10:54:14;99491.03;;;-1.19;65.05
66385;BME280;53426;55.872;37.462;2024-01-27T10:56:45;99470.59;;;-1.28;64.93
66385;BME280;53426;55.872;37.462;2024-01-27T10:59:18;99309.25;;;-2.34;65.42
66385;BME280;53426;55.872;37.462;2024-01-27T11:02:03;99414.16;;;-1.93;65.74
66385;BME280;53426;55.872;37.462;2024-01-27T11:04:31;99486.13;;;-1.50;65.48
66385;BME280;53426;55.872;37.462;2024-01-27T11:07:01;99437.78;;;-1.77;66.34
66385;BME280;53426;55.872;37.462;2024-01-27T11:10:23;99406.56;;;-1.99;66.08
66385;BME280;53426;55.872;37.462;2024-01-27T11:12:50;99418.72;;;-1.76;65.80
66385;BME280;53426;55.872;37.462;2024-01-27T11:15:21;99368.28;;;-2.40;65.45
66385;BME280;53426;55.872;37.462;2024-01-27T11:18:00;99369.19;;;-2.18;65.88
66385;BME280;53426;55.872;37.462;2024-01-27T11:20:31;99370.22;;;-2.22;65.87
66385;BME280;53426;55.872;37.462;2024-01-27T11:23:10;99406.69;;;-1.79;65.31
66385;BME280;53426;55.872;37.462;2024-01-27T11:25:36;99297.44;;;-2.41;65.08
66385;BME280;53426;55.872;37.462;2024-01-27T11:28:13;99433.34;;;-1.74;65.07
66385;BME280;53426;55.872;37.462;2024-01-27T11:30:46;99464.78;;;-1.58;65.31
66385;BME280;53426;55.872;37.462;2024-01-27T11:33:17;99327.63;;;-2.40;65.43
66385;BME280;53426;55.872;37.462;2024-01-27T11:35:44;99503.75;;;-1.35;64.70
66385;BME280;53426;55.872;37.462;2024-01-27T11:38:10;99426.09;;;-1.89;64.82
66385;BME280;53426;55.872;37.462;2024-01-27T11:40:55;99368.59;;;-2.25;65.21
66385;BME280;53426;55.872;37.462;2024-01-27T11:43:34;99386.91;;;-2.29;64.97
66385;BME280;53426;55.872;37.462;2024-01-27T11:56:10;99516.44;;;-1.50;65.65
66385;BME280;53426;55.872;37.462;2024-01-27T11:59:21;99516.00;;;-1.63;65.99
66385;BME280;53426;55.872;37.462;2024-01-27T12:02:14;99525.28;;;-1.56;66.47
66385;BME280;53426;55.872;37.462;2024-01-27T12:04:41;99362.16;;;-2.64;66.04
66385;BME280;53426;55.872;37.462;2024-01-27T12:07:07;99558.31;;;-1.59;66.70
66385;BME280;53426;55.872;37.462;2024-01-27T12:09:33;99447.44;;;-2.05;66.47
66385;BME280;53426;55.872;37.462;2024-01-27T12:11:59;99400.66;;;-2.52;65.95
66385;BME280;53426;55.872;37.462;2024-01-27T12:14:48;99396.94;;;-2.45;66.71
66385;BME280;53426;55.872;37.462;2024-01-27T12:17:15;99339.03;;;-2.95;66.66
66385;BME280;53426;55.872;37.462;2024-01-27T12:19:52;99518.78;;;-1.92;66.93
66385;BME280;53426;55.872;37.462;2024-01-27T12:22:37;99566.94;;;-1.59;66.88
66385;BME280;53426;55.872;37.462;2024-01-27T12:25:11;99539.56;;;-1.69;66.85
66385;BME280;53426;55.872;37.462;2024-01-27T12:27:40;99434.06;;;-2.44;66.48
66385;BME280;53426;55.872;37.462;2024-01-27T12:30:06;99479.81;;;-2.17;66.86
66385;BME280;53426;55.872;37.462;2024-01-27T12:32:33;99552.78;;;-1.75;67.37
66385;BME280;53426;55.872;37.462;2024-01-27T12:35:06;99607.31;;;-1.50;66.87
66385;BME280;53426;55.872;37.462;2024-01-27T12:37:34;99590.44;;;-1.63;67.09
66385;BME280;53426;55.872;37.462;2024-01-27T12:40:00;99553.84;;;-2.07;66.90
66385;BME280;53426;55.872;37.462;2024-01-27T12:42:26;99554.06;;;-2.13;67.23
66385;BME280;53426;55.872;37.462;2024-01-27T12:44:53;99605.28;;;-1.93;67.67
66385;BME280;53426;55.872;37.462;2024-01-27T12:47:19;99555.19;;;-2.22;67.61
66385;BME280;53426;55.872;37.462;2024-01-27T12:49:45;99456.00;;;-2.81;68.00
66385;BME280;53426;55.872;37.462;2024-01-27T12:52:11;99445.31;;;-2.98;67.95
66385;BME280;53426;55.872;37.462;2024-01-27T12:54:38;99581.59;;;-2.09;67.78
66385;BME280;53426;55.872;37.462;2024-01-27T12:57:04;99533.91;;;-2.31;67.57
66385;BME280;53426;55.872;37.462;2024-01-27T12:59:33;99583.09;;;-2.02;67.92
66385;BME280;53426;55.872;37.462;2024-01-27T13:01:59;99626.94;;;-1.68;67.98
66385;BME280;53426;55.872;37.462;2024-01-27T13:04:25;99561.94;;;-2.16;67.49
66385;BME280;53426;55.872;37.462;2024-01-27T13:06:54;99628.41;;;-1.59;67.38
66385;BME280;53426;55.872;37.462;2024-01-27T13:09:24;99655.34;;;-1.63;66.95
66385;BME280;53426;55.872;37.462;2024-01-27T13:11:50;99662.78;;;-1.79;66.96
66385;BME280;53426;55.872;37.462;2024-01-27T13:14:17;99687.31;;;-1.89;67.43
66385;BME280;53426;55.872;37.462;2024-01-27T13:16:46;99527.78;;;-2.84;67.43
66385;BME280;53426;55.872;37.462;2024-01-27T13:19:15;99388.75;;;-3.40;68.03
66385;BME280;53426;55.872;37.462;2024-01-27T13:21:44;99515.06;;;-2.64;67.89
66385;BME280;53426;55.872;37.462;2024-01-27T13:29:51;99645.47;;;-2.06;67.60
66385;BME280;53426;55.872;37.462;2024-01-27T13:32:16;99667.88;;;-2.02;67.42
66385;BME280;53426;55.872;37.462;2024-01-27T13:34:46;99667.06;;;-2.04;67.93
66385;BME280;53426;55.872;37.462;2024-01-27T13:37:13;99628.06;;;-2.29;68.17
66385;BME280;53426;55.872;37.462;2024-01-27T13:39:49;99577.84;;;-2.55;68.19
66385;BME280;53426;55.872;37.462;2024-01-27T13:42:16;99668.56;;;-1.97;68.46
66385;BME280;53426;55.872;37.462;2024-01-27T13:44:48;99645.56;;;-2.08;67.78
66385;BME280;53426;55.872;37.462;2024-01-27T13:47:17;99627.47;;;-2.39;67.63
66385;BME280;53426;55.872;37.462;2024-01-27T13:52:43;99541.97;;;-2.96;68.32
66385;BME280;53426;55.872;37.462;2024-01-27T13:55:12;99533.41;;;-3.00;68.05